KTPL/TPL METAR and TAF weather

Enter ICAO airport designator
Station Type Date Time Source
KTPL METAR 2021/07/28 19:51 UTC NOAA

KTPL 281951Z AUTO VRB03KT 10SM FEW060 34/22 A3004 RMK AO2 SLP158 T03440217


Station Type Date Time Source
KTPL Decoded METAR 2021/07/28 19:51 UTC NOAA

Temple, Draughon-Miller Central Texas Regional Airport, TX, United States (KTPL) 31-09N 097-24W
Jul 28, 2021 - 03:51 PM EDT / 2021.07.28 1951 UTC
Wind: Variable at 3 MPH (3 KT):0
Visibility: 10 mile(s):0
Sky conditions: mostly clear
Temperature: 93.9 F (34.4 C)
Heat index: 100.8 F (38.2 C):1
Dew Point: 71.1 F (21.7 C)
Relative Humidity: 47%
Pressure (altimeter): 30.04 in. Hg (1017 hPa)
ob: KTPL 281951Z AUTO VRB03KT 10SM FEW060 34/22 A3004 RMK AO2 SLP158 T03440217
cycle: 20

Station Type Date Time Source
KTPL TAF UTC NOAA

Error!

Example: see airport list